Time;durP1;ratioP1;P1;durP2;ratioP2;P2;SDS_P1;SDS_P2;PMS_P1;PMS_P2;Temp;Humidity;BMP_temperature;BMP_pressure;BME280_temperature;BME280_humidity;BME280_pressure;Samples;Min_cycle;Max_cycle;Signal;HPM_P1;HPM_P2
2023/12/27 00:01:37;;;;;;;10.65;2.88;;;6.20;99.90;;;;;;4947298;28;20041;-81
2023/12/27 00:04:03;;;;;;;6.93;2.33;;;6.20;99.90;;;;;;4959909;28;20034;-81
2023/12/27 00:06:29;;;;;;;11.50;3.53;;;6.40;99.90;;;;;;4908756;28;20055;-81
2023/12/27 00:08:54;;;;;;;15.00;4.03;;;6.30;99.90;;;;;;4946478;28;20039;-80
2023/12/27 00:11:20;;;;;;;13.63;3.65;;;6.30;99.90;;;;;;4958718;28;20090;-81
2023/12/27 00:13:45;;;;;;;11.27;3.05;;;6.30;99.90;;;;;;4932140;28;20019;-80
2023/12/27 00:16:11;;;;;;;12.35;3.08;;;6.20;99.90;;;;;;4929854;28;20023;-81
2023/12/27 00:18:37;;;;;;;13.93;3.45;;;6.10;99.90;;;;;;4943626;28;20038;-81
2023/12/27 00:21:04;;;;;;;10.25;3.10;;;6.00;99.90;;;;;;4959584;28;20069;-81
2023/12/27 00:23:30;;;;;;;11.38;3.25;;;5.90;99.90;;;;;;4933698;28;20045;-83
2023/12/27 00:25:56;;;;;;;9.20;2.80;;;5.90;99.90;;;;;;4934877;28;20035;-89
2023/12/27 00:28:21;;;;;;;9.57;3.15;;;5.90;99.90;;;;;;4934296;28;20146;-89
2023/12/27 00:30:51;;;;;;;9.00;3.42;;;5.90;99.90;;;;;;4917243;28;20126;-90
2023/12/27 00:33:20;;;;;;;14.35;3.55;;;5.90;99.90;;;;;;4953228;28;20041;-91
2023/12/27 00:35:47;;;;;;;11.48;2.97;;;5.90;99.90;;;;;;4934263;28;20031;-91
2023/12/27 00:38:12;;;;;;;13.07;3.22;;;5.80;99.90;;;;;;4935419;28;20504;-90
2023/12/27 00:40:38;;;;;;;14.63;3.70;;;5.80;99.90;;;;;;4932159;28;20042;-91
2023/12/27 00:43:04;;;;;;;6.95;2.83;;;5.70;99.90;;;;;;4924506;28;20093;-90
2023/12/27 00:45:30;;;;;;;10.63;3.60;;;5.70;99.90;;;;;;4935550;28;20035;-92
2023/12/27 00:47:55;;;;;;;10.25;3.42;;;5.60;99.90;;;;;;4923654;28;20103;-89
2023/12/27 00:50:21;;;;;;;11.50;3.50;;;5.60;99.90;;;;;;4861365;29;20033;-88
2023/12/27 00:52:47;;;;;;;11.35;3.58;;;5.60;99.90;;;;;;4902711;28;20058;-89
2023/12/27 00:55:14;;;;;;;16.63;2.80;;;5.70;99.90;;;;;;4927500;28;20048;-91
2023/12/27 00:57:40;;;;;;;17.92;4.00;;;5.70;99.90;;;;;;4948960;28;20105;-89
2023/12/27 01:00:09;;;;;;;14.13;3.38;;;5.70;99.90;;;;;;4950716;28;20492;-86
2023/12/27 01:02:37;;;;;;;11.43;3.53;;;5.50;99.90;;;;;;4920263;28;21449;-89
2023/12/27 01:05:03;;;;;;;10.43;3.50;;;5.40;99.90;;;;;;4934367;28;20285;-91
2023/12/27 01:07:29;;;;;;;16.45;4.28;;;5.30;99.90;;;;;;4949266;28;20043;-89
2023/12/27 01:09:54;;;;;;;19.90;4.60;;;5.20;99.90;;;;;;4931544;28;20031;-91
2023/12/27 01:12:20;;;;;;;12.70;3.53;;;5.30;99.90;;;;;;4935011;28;20053;-89
2023/12/27 01:14:45;;;;;;;22.52;4.35;;;5.20;99.90;;;;;;4928396;28;20038;-88
2023/12/27 01:17:11;;;;;;;16.02;5.03;;;5.10;99.90;;;;;;4932068;28;20459;-91
2023/12/27 01:19:40;;;;;;;13.52;4.25;;;5.10;99.90;;;;;;4927878;28;20031;-92
2023/12/27 01:22:08;;;;;;;15.52;4.55;;;5.10;99.90;;;;;;4939283;28;20031;-90
2023/12/27 01:24:34;;;;;;;16.13;4.35;;;5.10;99.90;;;;;;4936612;28;20539;-89
2023/12/27 01:26:59;;;;;;;13.50;3.10;;;5.10;99.90;;;;;;4935148;28;20031;-89
2023/12/27 01:29:25;;;;;;;11.55;3.38;;;5.10;99.90;;;;;;4920098;28;20085;-90
2023/12/27 01:31:50;;;;;;;10.02;3.28;;;5.10;99.90;;;;;;4963481;28;20032;-89
2023/12/27 01:34:18;;;;;;;17.17;4.13;;;5.10;99.90;;;;;;4949691;28;20045;-89
2023/12/27 01:36:45;;;;;;;9.50;3.10;;;5.10;99.90;;;;;;4947285;28;20030;-89
2023/12/27 01:39:11;;;;;;;8.82;3.15;;;5.00;99.90;;;;;;4928888;28;20512;-90
2023/12/27 01:41:37;;;;;;;18.10;4.38;;;5.00;99.90;;;;;;4947288;28;20031;-90
2023/12/27 01:44:03;;;;;;;13.90;3.47;;;5.00;99.90;;;;;;4919073;28;20038;-90
2023/12/27 01:46:28;;;;;;;9.50;3.47;;;5.00;99.90;;;;;;4921200;28;20051;-88
2023/12/27 01:48:54;;;;;;;16.92;4.47;;;5.00;99.90;;;;;;4932241;28;20083;-91
2023/12/27 01:51:20;;;;;;;21.17;3.97;;;4.90;99.90;;;;;;4949785;28;20035;-88
2023/12/27 01:53:45;;;;;;;15.68;4.32;;;4.90;99.90;;;;;;4933577;28;20031;-89
2023/12/27 01:56:11;;;;;;;10.32;3.67;;;4.80;99.90;;;;;;4919015;28;20035;-88
2023/12/27 01:58:37;;;;;;;6.75;2.60;;;4.90;99.90;;;;;;4931581;28;20039;-87
2023/12/27 02:01:05;;;;;;;10.23;3.28;;;4.80;99.90;;;;;;4965549;28;20030;-88
2023/12/27 02:03:31;;;;;;;19.20;4.28;;;4.90;99.90;;;;;;4916555;28;20043;-85
2023/12/27 02:05:59;;;;;;;12.52;3.75;;;4.80;99.90;;;;;;4939287;28;20032;-87
2023/12/27 02:08:25;;;;;;;16.48;4.05;;;4.70;99.90;;;;;;4941234;28;20034;-88
2023/12/27 02:10:54;;;;;;;20.40;4.82;;;4.60;99.90;;;;;;4965196;28;20228;-86
2023/12/27 02:13:19;;;;;;;15.88;4.03;;;4.40;99.90;;;;;;4953964;28;20030;-87
2023/12/27 02:15:46;;;;;;;10.45;3.85;;;4.30;99.90;;;;;;4951890;28;20684;-87
2023/12/27 02:18:12;;;;;;;12.52;3.22;;;4.30;99.90;;;;;;4919989;28;20077;-88
2023/12/27 02:20:38;;;;;;;17.75;5.55;;;4.60;99.90;;;;;;4933068;28;20066;-87
2023/12/27 02:23:11;;;;;;;25.48;5.18;;;4.40;99.90;;;;;;4916650;28;20069;-88
2023/12/27 02:25:43;;;;;;;12.98;3.80;;;4.30;99.90;;;;;;4916736;28;20442;-87
2023/12/27 02:28:14;;;;;;;19.52;4.78;;;4.20;99.90;;;;;;4928246;28;20461;-86
2023/12/27 02:30:43;;;;;;;15.50;3.95;;;4.20;99.90;;;;;;4947207;28;20622;-87
2023/12/27 02:35:59;;;;;;;18.27;4.70;;;4.00;99.90;;;;;;4944065;28;20045;-84
2023/12/27 02:38:28;;;;;;;16.35;4.80;;;4.00;99.90;;;;;;4947283;28;20027;-85
2023/12/27 02:41:02;;;;;;;16.00;4.75;;;4.00;99.90;;;;;;4950130;28;20031;-85
2023/12/27 02:43:31;;;;;;;11.70;4.65;;;4.10;99.90;;;;;;4917954;28;20035;-85
2023/12/27 02:45:56;;;;;;;14.18;4.80;;;4.10;99.90;;;;;;4952484;28;20032;-85
2023/12/27 02:48:29;;;;;;;18.40;5.13;;;4.00;99.90;;;;;;4933962;28;20243;-86
2023/12/27 02:51:02;;;;;;;21.52;5.75;;;4.00;99.90;;;;;;4953766;28;20617;-83
2023/12/27 02:53:28;;;;;;;16.23;3.92;;;3.80;99.90;;;;;;4898037;28;20035;-84
2023/12/27 02:55:57;;;;;;;18.48;4.78;;;3.90;99.90;;;;;;4908713;28;20057;-83
2023/12/27 02:58:25;;;;;;;19.00;5.15;;;4.10;99.90;;;;;;4923844;28;20035;-83
2023/12/27 03:00:50;;;;;;;12.98;4.18;;;4.10;99.90;;;;;;4924137;28;20031;-83
2023/12/27 03:03:16;;;;;;;11.63;3.13;;;4.00;99.90;;;;;;4929602;28;20034;-84
2023/12/27 03:05:41;;;;;;;15.57;5.05;;;4.10;99.90;;;;;;4947416;28;20051;-83
2023/12/27 03:08:07;;;;;;;12.70;4.88;;;4.00;99.90;;;;;;4935244;28;20034;-83
2023/12/27 03:10:33;;;;;;;22.17;6.10;;;4.00;99.90;;;;;;4913239;28;20078;-83
2023/12/27 03:13:01;;;;;;;27.52;6.05;;;3.90;99.90;;;;;;4930610;28;20093;-85
2023/12/27 03:15:27;;;;;;;18.88;5.72;;;3.70;99.90;;;;;;4933137;28;20397;-85
2023/12/27 03:17:52;;;;;;;25.42;5.78;;;3.80;99.90;;;;;;4933103;28;20031;-85
2023/12/27 03:20:18;;;;;;;13.40;4.60;;;3.80;99.90;;;;;;4932858;28;20046;-85
2023/12/27 03:22:44;;;;;;;18.42;5.32;;;3.70;99.90;;;;;;4931225;28;20038;-85
2023/12/27 03:25:09;;;;;;;17.83;5.85;;;3.70;99.90;;;;;;4932150;28;20812;-85
2023/12/27 03:27:35;;;;;;;23.70;5.95;;;3.70;99.90;;;;;;4948276;28;20043;-84
2023/12/27 03:30:01;;;;;;;19.58;6.45;;;3.60;99.90;;;;;;4949073;28;20035;-84
2023/12/27 03:32:26;;;;;;;17.83;5.78;;;3.50;99.90;;;;;;4932596;28;20129;-84
2023/12/27 03:34:52;;;;;;;21.23;5.72;;;3.50;99.90;;;;;;4934724;28;20039;-83
2023/12/27 03:37:20;;;;;;;18.00;5.82;;;3.50;99.90;;;;;;4964237;28;20031;-84
2023/12/27 03:39:50;;;;;;;13.43;5.15;;;3.50;99.90;;;;;;4948327;28;20122;-84
2023/12/27 03:42:19;;;;;;;16.50;5.85;;;3.50;99.90;;;;;;4935874;28;20038;-85
2023/12/27 03:44:45;;;;;;;19.42;6.63;;;3.50;99.90;;;;;;4931458;28;20674;-85
2023/12/27 03:47:10;;;;;;;14.35;4.70;;;3.30;99.90;;;;;;4929398;28;20051;-84
2023/12/27 03:49:36;;;;;;;14.00;4.57;;;3.40;99.90;;;;;;4916112;28;20039;-84
2023/12/27 03:52:02;;;;;;;10.82;5.25;;;3.70;99.90;;;;;;4932324;28;20039;-84
2023/12/27 03:54:27;;;;;;;12.07;4.63;;;3.80;99.90;;;;;;4908022;29;20074;-83
2023/12/27 03:56:53;;;;;;;9.20;4.40;;;3.90;99.90;;;;;;4943557;28;20026;-83
2023/12/27 03:59:19;;;;;;;25.35;6.90;;;3.90;99.90;;;;;;4946055;28;20035;-83
2023/12/27 04:01:47;;;;;;;28.95;7.15;;;3.80;99.90;;;;;;4931134;28;20024;-83
2023/12/27 04:04:17;;;;;;;27.10;7.10;;;3.70;99.90;;;;;;4916451;28;20030;-83
2023/12/27 04:06:43;;;;;;;19.70;7.18;;;3.50;99.90;;;;;;4925806;28;20464;-84
2023/12/27 04:09:08;;;;;;;13.18;5.20;;;3.40;99.90;;;;;;4928189;28;20034;-83
2023/12/27 04:11:34;;;;;;;10.13;4.10;;;3.50;99.90;;;;;;4930489;28;20082;-83
2023/12/27 04:13:59;;;;;;;16.30;4.40;;;3.80;99.90;;;;;;4916455;28;20480;-84
2023/12/27 04:16:25;;;;;;;20.33;6.72;;;4.00;99.90;;;;;;4941748;28;20039;-83
2023/12/27 04:18:50;;;;;;;28.48;7.63;;;3.90;99.90;;;;;;4927865;28;20038;-83
2023/12/27 04:21:16;;;;;;;25.23;7.22;;;3.60;99.90;;;;;;4932218;28;20078;-83
2023/12/27 04:23:42;;;;;;;23.73;7.05;;;3.50;99.90;;;;;;4930804;28;20042;-83
2023/12/27 04:26:07;;;;;;;23.35;7.80;;;3.40;99.90;;;;;;4914570;28;20405;-83
2023/12/27 04:28:34;;;;;;;24.75;6.85;;;3.30;99.90;;;;;;4958115;28;20049;-83
2023/12/27 04:31:01;;;;;;;24.75;7.40;;;3.30;99.90;;;;;;4917637;28;20054;-84
2023/12/27 04:33:29;;;;;;;18.27;7.28;;;3.40;99.90;;;;;;4914187;28;20054;-84
2023/12/27 04:35:55;;;;;;;19.45;7.63;;;3.40;99.90;;;;;;4935979;28;20516;-84
2023/12/27 04:38:21;;;;;;;23.58;7.30;;;3.30;99.90;;;;;;4928741;28;20034;-83
2023/12/27 04:40:46;;;;;;;27.42;7.60;;;3.30;99.90;;;;;;4958334;28;20297;-84
2023/12/27 04:43:12;;;;;;;26.00;8.10;;;3.30;99.90;;;;;;4925283;28;20067;-84
2023/12/27 04:45:38;;;;;;;21.15;6.80;;;3.40;99.90;;;;;;4913011;28;20071;-83
2023/12/27 04:48:04;;;;;;;18.30;7.18;;;3.40;99.90;;;;;;4958861;28;20030;-83
2023/12/27 04:50:33;;;;;;;35.50;7.88;;;3.40;99.90;;;;;;4929287;28;20038;-83
2023/12/27 04:52:59;;;;;;;25.13;7.85;;;3.40;99.90;;;;;;4929260;28;20505;-84
2023/12/27 04:55:24;;;;;;;34.08;7.68;;;3.40;99.90;;;;;;4922463;28;20042;-84
2023/12/27 04:57:50;;;;;;;23.60;7.13;;;3.50;99.90;;;;;;4945571;28;20666;-84
2023/12/27 05:00:16;;;;;;;22.65;7.05;;;3.40;99.90;;;;;;4933464;28;20031;-84
2023/12/27 05:02:41;;;;;;;22.35;9.68;;;3.50;99.90;;;;;;4959126;28;20118;-84
2023/12/27 05:05:07;;;;;;;24.15;7.68;;;3.50;99.90;;;;;;4930328;28;20512;-84
2023/12/27 05:07:33;;;;;;;20.63;6.75;;;3.50;99.90;;;;;;4945501;28;20054;-84
2023/12/27 05:09:59;;;;;;;30.35;8.15;;;3.40;99.90;;;;;;4912551;28;20515;-84
2023/12/27 05:12:24;;;;;;;31.27;6.35;;;3.50;99.90;;;;;;4945861;28;20065;-84
2023/12/27 05:14:50;;;;;;;25.98;7.45;;;3.50;99.90;;;;;;4943948;28;20031;-84
2023/12/27 05:17:15;;;;;;;24.52;7.07;;;3.40;99.90;;;;;;4946565;28;20043;-84
2023/12/27 05:19:41;;;;;;;17.95;5.93;;;3.50;99.90;;;;;;4922042;28;20334;-84
2023/12/27 05:22:07;;;;;;;20.30;8.05;;;3.50;99.90;;;;;;4958808;28;20031;-83
2023/12/27 05:24:32;;;;;;;39.35;10.02;;;3.60;99.90;;;;;;4915109;28;20049;-83
2023/12/27 05:26:58;;;;;;;13.63;5.85;;;3.60;99.90;;;;;;4932426;28;20486;-84
2023/12/27 05:29:23;;;;;;;21.80;6.82;;;3.70;99.90;;;;;;4926454;28;20035;-83
2023/12/27 05:31:49;;;;;;;29.55;8.07;;;3.80;99.90;;;;;;4914997;28;20034;-83
2023/12/27 05:34:14;;;;;;;23.30;7.30;;;3.80;99.90;;;;;;4946320;28;20074;-83
2023/12/27 05:36:40;;;;;;;26.48;6.45;;;3.70;99.90;;;;;;4944161;28;20023;-83
2023/12/27 05:39:06;;;;;;;25.58;6.70;;;3.70;99.90;;;;;;4926816;28;20031;-83
2023/12/27 05:41:31;;;;;;;26.27;6.85;;;3.60;99.90;;;;;;4929534;28;20066;-83
2023/12/27 05:43:57;;;;;;;19.83;6.03;;;3.70;99.90;;;;;;4933400;28;20049;-84
2023/12/27 05:46:22;;;;;;;18.20;6.32;;;3.70;99.90;;;;;;4942957;28;20035;-84
2023/12/27 05:48:48;;;;;;;24.40;7.03;;;3.80;99.90;;;;;;4932164;28;20015;-84
2023/12/27 05:51:13;;;;;;;19.25;5.47;;;3.80;99.90;;;;;;4927059;28;20412;-84
2023/12/27 05:53:41;;;;;;;25.35;5.72;;;3.90;99.90;;;;;;4928429;28;20094;-84
2023/12/27 05:56:08;;;;;;;11.57;4.32;;;3.90;99.90;;;;;;4946600;28;20035;-83
2023/12/27 05:58:34;;;;;;;7.88;3.70;;;4.00;99.90;;;;;;4927534;28;20147;-84
2023/12/27 06:00:59;;;;;;;16.42;5.28;;;4.10;99.90;;;;;;4917907;28;20102;-84
2023/12/27 06:03:25;;;;;;;9.50;4.32;;;4.20;99.90;;;;;;4915403;28;20844;-84
2023/12/27 06:05:50;;;;;;;15.70;3.95;;;4.20;99.90;;;;;;4931172;28;20122;-84
2023/12/27 06:08:18;;;;;;;14.82;3.85;;;4.10;99.90;;;;;;4961992;28;20063;-84
2023/12/27 06:10:45;;;;;;;19.75;4.45;;;4.20;99.90;;;;;;4946499;28;20023;-84
2023/12/27 06:13:10;;;;;;;16.25;4.75;;;4.20;99.90;;;;;;4950882;28;20501;-85
2023/12/27 06:15:36;;;;;;;20.25;3.80;;;4.20;99.90;;;;;;4938413;28;20031;-84
2023/12/27 06:18:02;;;;;;;12.52;3.78;;;4.10;99.90;;;;;;4931965;28;20039;-85
2023/12/27 06:20:27;;;;;;;13.88;4.25;;;4.20;99.90;;;;;;4933998;28;20834;-85
2023/12/27 06:22:53;;;;;;;12.15;3.92;;;4.30;99.90;;;;;;4915310;28;20058;-85
2023/12/27 06:25:18;;;;;;;13.43;4.45;;;4.30;99.90;;;;;;4942952;28;20233;-85
2023/12/27 06:27:44;;;;;;;17.40;4.95;;;4.30;99.90;;;;;;4932575;28;20039;-85
2023/12/27 06:30:10;;;;;;;15.20;4.47;;;4.30;99.90;;;;;;4958808;28;20090;-82
2023/12/27 06:32:36;;;;;;;19.98;5.90;;;4.40;99.90;;;;;;4931579;28;20110;-84
2023/12/27 06:35:02;;;;;;;15.07;4.68;;;4.50;99.90;;;;;;4912207;28;20043;-85
2023/12/27 06:37:27;;;;;;;10.95;3.88;;;4.70;99.90;;;;;;4936046;28;20051;-85
2023/12/27 06:39:53;;;;;;;14.50;4.50;;;4.50;99.90;;;;;;4930231;28;20059;-85
2023/12/27 06:42:19;;;;;;;18.80;3.30;;;4.50;99.90;;;;;;4949813;28;20113;-85
2023/12/27 06:44:44;;;;;;;13.00;3.47;;;4.60;99.90;;;;;;4927896;28;20414;-85
2023/12/27 06:47:10;;;;;;;15.27;4.10;;;4.60;99.90;;;;;;4947399;28;20456;-85
2023/12/27 06:49:35;;;;;;;9.38;3.05;;;4.70;99.90;;;;;;4933977;28;20295;-85
2023/12/27 06:52:01;;;;;;;14.00;3.78;;;4.80;99.90;;;;;;4961081;28;20039;-85
2023/12/27 06:54:26;;;;;;;12.90;5.00;;;4.80;99.90;;;;;;4928200;28;20117;-85
2023/12/27 06:56:52;;;;;;;11.88;3.42;;;4.90;99.90;;;;;;4934652;28;20058;-85
2023/12/27 06:59:18;;;;;;;17.40;4.20;;;4.90;99.90;;;;;;4945557;28;20067;-85
2023/12/27 07:01:43;;;;;;;7.90;3.45;;;5.00;99.90;;;;;;4965435;28;20027;-85
2023/12/27 07:04:09;;;;;;;15.60;3.40;;;5.00;99.90;;;;;;4931931;28;20042;-85
2023/12/27 07:06:34;;;;;;;13.73;3.58;;;5.10;99.90;;;;;;4936395;28;20131;-85
2023/12/27 07:09:00;;;;;;;12.82;3.28;;;5.10;99.90;;;;;;4928436;28;20034;-85
2023/12/27 07:11:25;;;;;;;10.82;3.67;;;5.10;99.90;;;;;;4910416;28;20030;-85
2023/12/27 07:13:51;;;;;;;13.45;5.20;;;5.30;99.90;;;;;;4917036;28;20671;-85
2023/12/27 07:16:17;;;;;;;9.93;3.30;;;5.10;99.90;;;;;;4956887;28;20481;-85
2023/12/27 07:18:42;;;;;;;10.00;3.42;;;5.20;99.90;;;;;;4927209;28;20089;-84
2023/12/27 07:21:08;;;;;;;10.70;4.55;;;5.20;99.90;;;;;;4952078;28;20157;-85
2023/12/27 07:23:34;;;;;;;13.63;4.03;;;5.30;99.90;;;;;;4962905;28;20031;-85
2023/12/27 07:25:59;;;;;;;9.00;4.30;;;5.30;99.90;;;;;;4929117;28;20031;-85
2023/12/27 07:28:31;;;;;;;11.35;3.42;;;5.30;99.90;;;;;;4946625;28;20035;-85
2023/12/27 07:30:57;;;;;;;11.27;4.20;;;5.30;99.90;;;;;;4933490;28;20035;-84
2023/12/27 07:33:23;;;;;;;10.20;3.70;;;5.40;99.90;;;;;;4918947;28;20031;-85
2023/12/27 07:35:48;;;;;;;12.60;4.72;;;5.40;99.90;;;;;;4916243;28;20077;-85
2023/12/27 07:38:14;;;;;;;12.93;4.05;;;5.40;99.90;;;;;;4946787;28;20035;-85
2023/12/27 07:40:44;;;;;;;11.63;4.10;;;5.50;99.90;;;;;;4912509;28;20078;-85
2023/12/27 07:43:10;;;;;;;20.75;5.15;;;5.50;99.90;;;;;;4911819;28;20038;-85
2023/12/27 07:45:35;;;;;;;8.35;4.13;;;5.50;99.90;;;;;;4929156;28;20039;-84
2023/12/27 07:48:02;;;;;;;9.88;3.90;;;5.60;99.90;;;;;;4915574;28;20039;-84
2023/12/27 07:50:28;;;;;;;11.95;3.95;;;5.60;99.90;;;;;;4946194;28;20043;-85
2023/12/27 07:52:53;;;;;;;11.32;3.63;;;5.60;99.90;;;;;;4930609;28;20030;-84
2023/12/27 07:55:19;;;;;;;8.45;4.55;;;5.70;99.90;;;;;;4944303;28;20026;-83
2023/12/27 07:57:46;;;;;;;13.52;4.70;;;5.80;99.90;;;;;;4929943;28;20034;-84
2023/12/27 08:00:15;;;;;;;12.95;4.22;;;5.80;99.90;;;;;;4934757;28;20054;-84
2023/12/27 08:02:53;;;;;;;9.70;3.72;;;5.80;99.90;;;;;;4917510;28;20441;-84
2023/12/27 08:05:19;;;;;;;11.30;5.68;;;5.90;99.90;;;;;;4945868;28;20198;-84
2023/12/27 08:07:45;;;;;;;14.82;5.15;;;5.90;99.90;;;;;;4958803;28;20126;-84
2023/12/27 08:10:10;;;;;;;13.73;3.47;;;5.80;99.90;;;;;;4942159;28;20165;-83
2023/12/27 08:12:36;;;;;;;10.85;4.35;;;5.90;99.90;;;;;;4934919;28;20118;-84
2023/12/27 08:15:01;;;;;;;13.35;3.90;;;5.90;99.90;;;;;;4941856;28;20042;-84
2023/12/27 08:17:27;;;;;;;9.52;4.00;;;6.10;99.90;;;;;;4957309;28;20047;-84
2023/12/27 08:19:53;;;;;;;13.40;4.28;;;6.00;99.90;;;;;;4946159;28;20067;-84
2023/12/27 08:22:20;;;;;;;7.38;4.07;;;6.00;99.90;;;;;;4959595;28;20162;-84
2023/12/27 08:24:46;;;;;;;8.07;3.58;;;6.10;99.90;;;;;;4936887;28;20035;-85
2023/12/27 08:27:11;;;;;;;7.82;3.97;;;6.10;99.90;;;;;;4923215;28;20084;-86
2023/12/27 08:29:37;;;;;;;9.00;3.67;;;6.10;99.90;;;;;;4928557;28;20035;-86
2023/12/27 08:32:03;;;;;;;12.25;3.53;;;6.20;99.90;;;;;;4928821;28;20117;-85
2023/12/27 08:34:29;;;;;;;7.35;3.30;;;6.20;99.90;;;;;;4929965;28;20457;-84
2023/12/27 08:36:55;;;;;;;6.43;3.67;;;6.20;99.90;;;;;;4929187;28;20041;-85
2023/12/27 08:39:21;;;;;;;6.72;3.08;;;6.30;99.90;;;;;;4927469;28;20034;-85
2023/12/27 08:41:46;;;;;;;9.20;3.10;;;6.30;99.90;;;;;;4919553;28;20027;-85
2023/12/27 08:44:12;;;;;;;7.07;2.95;;;6.30;99.90;;;;;;4931538;28;20035;-84
2023/12/27 08:46:39;;;;;;;6.85;3.13;;;6.40;99.90;;;;;;4927973;28;20034;-85
2023/12/27 08:49:05;;;;;;;9.05;2.72;;;6.40;99.90;;;;;;4932554;28;20999;-85
2023/12/27 08:51:31;;;;;;;6.82;2.97;;;6.40;99.90;;;;;;4932369;28;20058;-84
2023/12/27 08:53:58;;;;;;;7.18;3.00;;;6.50;99.90;;;;;;4949522;28;20082;-85
2023/12/27 08:56:24;;;;;;;7.65;2.97;;;6.50;99.90;;;;;;4927319;28;20153;-84
2023/12/27 08:58:50;;;;;;;11.02;3.53;;;6.60;99.90;;;;;;4961425;28;20035;-84
2023/12/27 09:01:16;;;;;;;6.93;3.38;;;6.60;99.90;;;;;;4929117;28;20082;-85
2023/12/27 09:03:42;;;;;;;8.98;3.05;;;6.60;99.90;;;;;;4929719;28;20074;-84
2023/12/27 09:06:08;;;;;;;8.13;2.75;;;6.60;99.90;;;;;;4945879;28;20301;-84
2023/12/27 09:08:37;;;;;;;7.05;2.47;;;6.60;99.90;;;;;;4929978;28;20030;-84
2023/12/27 09:11:04;;;;;;;5.30;2.30;;;6.80;99.90;;;;;;4946171;28;20492;-83
2023/12/27 09:13:29;;;;;;;8.15;2.92;;;6.70;99.90;;;;;;4944466;28;20105;-83
2023/12/27 09:15:55;;;;;;;6.35;2.97;;;6.80;99.90;;;;;;4917690;28;20043;-83
2023/12/27 09:18:21;;;;;;;4.78;2.50;;;6.80;99.90;;;;;;4912623;28;20122;-83
2023/12/27 09:20:46;;;;;;;6.22;3.35;;;6.80;99.90;;;;;;4933863;28;20057;-83
2023/12/27 09:23:12;;;;;;;4.03;2.15;;;6.90;99.90;;;;;;4930942;28;20039;-83
2023/12/27 09:25:37;;;;;;;3.72;1.90;;;7.00;99.90;;;;;;4961753;28;20094;-83
2023/12/27 09:28:03;;;;;;;2.63;1.73;;;7.00;99.90;;;;;;4930270;28;20051;-83
2023/12/27 09:30:29;;;;;;;5.90;2.15;;;7.00;99.90;;;;;;4930316;28;20519;-83
2023/12/27 09:32:54;;;;;;;3.92;1.85;;;7.10;99.90;;;;;;4917056;28;20449;-84
2023/12/27 09:35:20;;;;;;;4.70;1.95;;;7.10;99.90;;;;;;4932206;28;20058;-82
2023/12/27 09:37:45;;;;;;;4.88;2.22;;;7.20;99.90;;;;;;4927036;28;20578;-84
2023/12/27 09:40:11;;;;;;;8.07;2.80;;;7.20;99.90;;;;;;4915456;28;20027;-83
2023/12/27 09:42:37;;;;;;;4.13;2.33;;;7.30;99.90;;;;;;4951620;28;20093;-83
2023/12/27 09:45:06;;;;;;;3.45;2.03;;;7.30;99.90;;;;;;4953483;28;20035;-86
2023/12/27 09:47:32;;;;;;;3.95;2.03;;;7.40;99.90;;;;;;4930798;28;20070;-87
2023/12/27 09:49:57;;;;;;;3.15;2.10;;;7.40;99.90;;;;;;4947823;28;20038;-87
2023/12/27 09:52:23;;;;;;;7.45;3.08;;;7.50;99.90;;;;;;4933709;28;20058;-86
2023/12/27 09:54:49;;;;;;;3.25;2.38;;;7.60;99.90;;;;;;4946376;28;20019;-86
2023/12/27 09:57:15;;;;;;;9.70;2.50;;;7.50;99.90;;;;;;4933906;28;20038;-86
2023/12/27 09:59:42;;;;;;;9.07;2.25;;;7.60;99.90;;;;;;4949066;28;20035;-86
2023/12/27 10:02:13;;;;;;;4.57;2.17;;;7.60;99.90;;;;;;4963027;28;20169;-87
2023/12/27 10:04:44;;;;;;;7.50;2.08;;;7.60;99.90;;;;;;4934923;28;20050;-83
2023/12/27 10:07:10;;;;;;;3.42;2.40;;;7.60;99.90;;;;;;4946076;28;20444;-86
2023/12/27 10:09:36;;;;;;;6.93;2.63;;;7.60;99.90;;;;;;4931657;28;20026;-88
2023/12/27 10:12:04;;;;;;;5.40;2.38;;;7.70;99.90;;;;;;4937973;28;20130;-87
2023/12/27 10:14:31;;;;;;;5.45;1.88;;;7.70;99.90;;;;;;4932410;28;20078;-85
2023/12/27 10:16:57;;;;;;;3.67;2.55;;;7.70;99.90;;;;;;4917558;28;20136;-87
2023/12/27 10:19:52;;;;;;;5.15;2.63;;;7.70;99.90;;;;;;4922501;28;20051;-86
2023/12/27 10:22:17;;;;;;;6.65;2.05;;;7.70;99.90;;;;;;4934167;28;20039;-86
2023/12/27 10:24:43;;;;;;;4.55;2.20;;;7.70;99.90;;;;;;4927092;28;20027;-83
2023/12/27 10:27:09;;;;;;;2.90;1.92;;;7.80;99.90;;;;;;4930885;28;20528;-85
2023/12/27 10:29:35;;;;;;;3.78;1.83;;;7.90;99.90;;;;;;4930142;28;20035;-84
2023/12/27 10:32:01;;;;;;;4.05;1.65;;;7.80;99.90;;;;;;4928179;28;20514;-86
2023/12/27 10:34:27;;;;;;;3.35;1.90;;;7.90;99.90;;;;;;4949417;28;20603;-87
2023/12/27 10:36:57;;;;;;;3.05;1.88;;;7.80;99.90;;;;;;4928780;28;20038;-86
2023/12/27 10:39:23;;;;;;;2.97;1.83;;;7.90;99.90;;;;;;4945238;28;20066;-85
2023/12/27 10:41:52;;;;;;;3.78;1.85;;;7.90;99.90;;;;;;4976749;28;20038;-86
2023/12/27 10:44:18;;;;;;;2.80;1.48;;;7.90;99.90;;;;;;4949753;28;20408;-85
2023/12/27 10:46:44;;;;;;;2.78;1.73;;;8.00;99.90;;;;;;4949045;28;20038;-85
2023/12/27 10:49:11;;;;;;;6.50;2.20;;;8.00;99.90;;;;;;4948212;28;20049;-86
2023/12/27 10:51:38;;;;;;;2.85;1.77;;;8.00;99.90;;;;;;4933738;28;20109;-86
2023/12/27 10:54:04;;;;;;;3.83;1.77;;;8.00;99.90;;;;;;4923348;28;20035;-85
2023/12/27 10:56:37;;;;;;;4.07;1.83;;;8.10;99.90;;;;;;4947646;28;20409;-83
2023/12/27 10:59:04;;;;;;;4.75;1.90;;;8.10;99.90;;;;;;4918325;28;20030;-83
2023/12/27 11:01:32;;;;;;;3.53;1.55;;;8.10;99.90;;;;;;4916101;28;20053;-83
2023/12/27 11:03:57;;;;;;;6.03;1.60;;;8.10;99.90;;;;;;4936676;28;20031;-83
2023/12/27 11:06:23;;;;;;;2.75;1.90;;;8.10;99.90;;;;;;4931375;28;20101;-83
2023/12/27 11:08:49;;;;;;;5.38;2.08;;;8.20;99.90;;;;;;4913749;28;20092;-83
2023/12/27 11:11:14;;;;;;;4.50;1.80;;;8.20;99.90;;;;;;4948799;28;20041;-82
2023/12/27 11:13:40;;;;;;;3.72;2.08;;;8.30;99.90;;;;;;4928570;28;20045;-82
2023/12/27 11:16:07;;;;;;;3.17;1.60;;;8.30;99.90;;;;;;4929266;28;20046;-82
2023/12/27 11:18:32;;;;;;;4.43;1.55;;;8.40;99.90;;;;;;4926472;28;20043;-83
2023/12/27 11:20:58;;;;;;;1.73;1.50;;;8.40;99.90;;;;;;4932436;28;20583;-83
2023/12/27 11:23:24;;;;;;;2.33;1.60;;;8.40;99.90;;;;;;4915217;28;20489;-83
2023/12/27 11:25:51;;;;;;;2.20;1.55;;;8.40;99.90;;;;;;4934511;28;20416;-82
2023/12/27 11:28:19;;;;;;;3.65;1.17;;;8.50;99.90;;;;;;4975209;28;20043;-82
2023/12/27 11:30:46;;;;;;;3.63;1.52;;;8.50;99.90;;;;;;4942982;28;20042;-82
2023/12/27 11:33:33;;;;;;;1.73;1.50;;;8.50;99.90;;;;;;4927574;28;20058;-83
2023/12/27 11:35:59;;;;;;;6.18;3.67;;;8.50;99.90;;;;;;4946059;28;20643;-83
2023/12/27 11:38:28;;;;;;;2.83;1.48;;;8.60;99.90;;;;;;4929842;28;20049;-82
2023/12/27 11:40:56;;;;;;;2.33;1.20;;;8.60;99.90;;;;;;4912373;28;20085;-82
2023/12/27 11:43:23;;;;;;;3.90;1.05;;;8.60;99.90;;;;;;4947429;28;20413;-82
2023/12/27 11:46:16;;;;;;;2.55;1.10;;;8.70;99.90;;;;;;4949599;28;20053;-82
2023/12/27 11:48:42;;;;;;;1.80;1.10;;;8.70;99.90;;;;;;4944565;28;20505;-82
2023/12/27 11:51:30;;;;;;;2.97;1.58;;;8.70;99.90;;;;;;4934264;28;20054;-82
2023/12/27 11:53:56;;;;;;;2.40;1.10;;;8.70;99.90;;;;;;4943290;28;20088;-82
2023/12/27 11:56:21;;;;;;;2.00;1.40;;;8.70;99.90;;;;;;4947291;28;20477;-82
2023/12/27 11:58:48;;;;;;;4.47;1.70;;;8.70;99.90;;;;;;4961247;28;20033;-81
2023/12/27 12:01:30;;;;;;;5.32;1.40;;;8.90;99.90;;;;;;4915231;28;20536;-82
2023/12/27 12:04:02;;;;;;;2.92;1.17;;;8.80;99.90;;;;;;4929306;28;20093;-82
2023/12/27 12:06:49;;;;;;;2.40;1.63;;;8.80;99.90;;;;;;4953066;28;20142;-83
2023/12/27 12:09:15;;;;;;;2.75;1.60;;;8.90;99.90;;;;;;4962673;28;20496;-82
2023/12/27 12:11:46;;;;;;;2.00;1.10;;;8.90;99.90;;;;;;4928527;28;20066;-81
2023/12/27 12:14:12;;;;;;;3.15;1.27;;;8.90;99.90;;;;;;4917348;28;20027;-82
2023/12/27 12:16:47;;;;;;;4.70;1.35;;;8.90;99.90;;;;;;4916414;28;20045;-81
2023/12/27 12:19:16;;;;;;;1.92;1.02;;;8.90;99.90;;;;;;4929582;28;20074;-82
2023/12/27 12:21:42;;;;;;;4.07;1.25;;;8.90;99.90;;;;;;4929942;28;20042;-82
2023/12/27 12:24:08;;;;;;;3.30;1.48;;;8.90;99.90;;;;;;4913668;28;20441;-81
2023/12/27 12:26:34;;;;;;;2.05;1.20;;;8.90;99.90;;;;;;4904344;28;20073;-81
2023/12/27 12:29:02;;;;;;;1.30;1.10;;;8.90;99.90;;;;;;4913370;28;20043;-82
2023/12/27 12:31:27;;;;;;;2.13;1.10;;;9.00;99.90;;;;;;4945832;28;20117;-82
2023/12/27 12:33:53;;;;;;;1.67;0.98;;;9.00;99.90;;;;;;4930071;28;20114;-82
2023/12/27 12:36:19;;;;;;;1.65;1.00;;;8.90;99.90;;;;;;4945962;28;20058;-82
2023/12/27 12:38:44;;;;;;;1.33;1.17;;;9.00;99.90;;;;;;4962923;28;20031;-81
2023/12/27 12:41:11;;;;;;;1.23;1.00;;;9.00;99.90;;;;;;4916624;28;20086;-81
2023/12/27 12:43:37;;;;;;;2.08;0.75;;;9.00;99.90;;;;;;4943189;28;20090;-80
2023/12/27 12:46:03;;;;;;;1.00;0.73;;;9.00;99.90;;;;;;4926086;28;20396;-82
2023/12/27 12:48:29;;;;;;;3.15;1.00;;;9.00;99.90;;;;;;4952040;28;20043;-83
2023/12/27 12:51:16;;;;;;;1.15;0.80;;;9.00;99.90;;;;;;4930735;28;20058;-80